createdAt,value
2023-02-06T00:01:01.695Z,59.20
2023-02-06T00:03:29.961Z,59.20
2023-02-06T00:05:59.369Z,59.20
2023-02-06T00:08:28.226Z,59.20
2023-02-06T00:10:56.438Z,59.10
2023-02-06T00:13:24.680Z,59.10
2023-02-06T00:15:54.193Z,59.10
2023-02-06T00:18:22.367Z,59.10
2023-02-06T00:20:50.551Z,59.10
2023-02-06T00:23:18.737Z,59.10
2023-02-06T00:25:47.116Z,59.10
2023-02-06T00:28:15.333Z,59.10
2023-02-06T00:30:46.558Z,59.10
2023-02-06T00:33:15.867Z,59.10
2023-02-06T00:35:44.114Z,59.00
2023-02-06T00:38:12.581Z,59.10
2023-02-06T00:40:40.877Z,59.00
2023-02-06T00:43:09.222Z,59.00
2023-02-06T00:45:37.537Z,59.10
2023-02-06T00:48:05.863Z,59.00
2023-02-06T00:50:35.424Z,59.00
2023-02-06T00:53:03.711Z,59.00
2023-02-06T00:55:31.867Z,59.00
2023-02-06T00:57:59.957Z,59.10
2023-02-06T01:00:28.092Z,59.00
2023-02-06T01:02:56.271Z,59.00
2023-02-06T01:05:24.419Z,59.00
2023-02-06T01:07:53.950Z,59.00
2023-02-06T01:10:22.103Z,59.00
2023-02-06T01:12:50.266Z,59.00
2023-02-06T01:15:18.418Z,59.00
2023-02-06T01:17:46.560Z,59.00
2023-02-06T01:20:15.984Z,59.00
2023-02-06T01:22:44.137Z,59.00
2023-02-06T01:25:13.712Z,58.90
2023-02-06T01:27:41.899Z,58.90
2023-02-06T01:30:11.304Z,58.90
2023-02-06T01:32:40.514Z,58.90
2023-02-06T01:35:10.591Z,58.90
2023-02-06T01:37:39.540Z,58.90
2023-02-06T01:40:10.259Z,58.90
2023-02-06T01:42:39.916Z,58.90
2023-02-06T01:45:37.628Z,58.90
2023-02-06T01:48:09.632Z,58.90
2023-02-06T01:50:40.520Z,58.90
2023-02-06T01:53:09.644Z,58.90
2023-02-06T01:55:41.408Z,58.90
2023-02-06T01:58:16.217Z,58.90
2023-02-06T02:00:44.734Z,58.90
2023-02-06T02:03:13.206Z,58.90
2023-02-06T02:05:43.245Z,58.90
2023-02-06T02:08:16.138Z,58.90
2023-02-06T02:10:44.566Z,58.90
2023-02-06T02:13:14.117Z,58.80
2023-02-06T02:15:57.642Z,58.70
2023-02-06T02:18:43.077Z,58.70
2023-02-06T02:21:43.321Z,58.70
2023-02-06T02:24:20.032Z,58.70
2023-02-06T02:27:14.993Z,58.70
2023-02-06T02:30:15.479Z,58.70
2023-02-06T02:33:36.476Z,58.70
2023-02-06T02:36:15.087Z,58.70
2023-02-06T02:38:55.414Z,58.70
2023-02-06T02:41:28.919Z,58.70
2023-02-06T02:44:02.977Z,58.70
2023-02-06T02:46:35.929Z,58.70
2023-02-06T02:49:07.126Z,58.70
2023-02-06T02:51:37.518Z,58.70
2023-02-06T02:54:05.642Z,58.60
2023-02-06T02:56:34.617Z,58.60
2023-02-06T02:59:09.125Z,58.70
2023-02-06T03:01:42.044Z,58.70
2023-02-06T03:04:16.926Z,58.60
2023-02-06T03:07:00.902Z,58.60
2023-02-06T03:09:40.341Z,58.60
2023-02-06T03:12:14.289Z,58.60
2023-02-06T03:14:46.988Z,58.60
2023-02-06T03:17:20.308Z,58.60
2023-02-06T03:19:53.812Z,58.50
2023-02-06T03:22:24.554Z,58.60
2023-02-06T03:24:54.483Z,58.50
2023-02-06T03:27:24.671Z,58.50
2023-02-06T03:29:55.812Z,58.50
2023-02-06T03:32:27.019Z,58.50
2023-02-06T03:34:57.922Z,58.50
2023-02-06T03:37:28.780Z,58.50
2023-02-06T03:40:00.402Z,58.50
2023-02-06T03:42:31.545Z,58.50
2023-02-06T03:45:02.147Z,58.50
2023-02-06T03:47:31.773Z,58.50
2023-02-06T03:50:01.936Z,58.50
2023-02-06T03:52:37.043Z,58.50
2023-02-06T03:55:11.048Z,58.50
2023-02-06T03:57:40.308Z,58.50
2023-02-06T04:00:09.749Z,58.40
2023-02-06T04:02:39.396Z,58.40
2023-02-06T04:05:08.548Z,58.50
2023-02-06T04:07:38.187Z,58.40
2023-02-06T04:10:07.087Z,58.40
2023-02-06T04:12:35.245Z,58.40
2023-02-06T04:15:03.410Z,58.50
2023-02-06T04:17:46.420Z,58.50
2023-02-06T04:20:18.227Z,58.50
2023-02-06T04:22:48.128Z,58.50
2023-02-06T04:25:16.337Z,58.50
2023-02-06T04:27:44.526Z,58.50
2023-02-06T04:30:14.141Z,58.50
2023-02-06T04:32:42.329Z,58.50
2023-02-06T04:35:10.860Z,58.50
2023-02-06T04:37:39.008Z,58.50
2023-02-06T04:40:09.169Z,58.50
2023-02-06T04:42:37.476Z,58.50
2023-02-06T04:45:06.047Z,58.60
2023-02-06T04:47:34.175Z,58.60
2023-02-06T04:50:02.374Z,58.60
2023-02-06T04:52:30.501Z,58.60
2023-02-06T04:54:58.644Z,58.60
2023-02-06T04:57:28.175Z,58.60
2023-02-06T04:59:56.312Z,58.60
2023-02-06T05:02:24.497Z,58.60
2023-02-06T05:04:52.664Z,58.60
2023-02-06T05:07:20.976Z,58.70
2023-02-06T05:09:49.117Z,58.70
2023-02-06T05:12:17.402Z,58.70
2023-02-06T05:14:46.991Z,58.70
2023-02-06T05:17:15.108Z,58.70
2023-02-06T05:19:43.390Z,58.70
2023-02-06T05:22:11.614Z,58.70
2023-02-06T05:24:39.765Z,58.70
2023-02-06T05:27:07.909Z,58.70
2023-02-06T05:29:35.993Z,58.70
2023-02-06T05:32:05.753Z,58.70
2023-02-06T05:34:33.888Z,58.70
2023-02-06T05:37:01.993Z,58.70
2023-02-06T05:39:30.273Z,58.70
2023-02-06T05:41:58.374Z,58.70
2023-02-06T05:44:26.592Z,58.70
2023-02-06T05:46:54.665Z,58.70
2023-02-06T05:49:24.228Z,58.70
2023-02-06T05:51:52.433Z,58.70
2023-02-06T05:54:20.589Z,58.70
2023-02-06T05:56:48.787Z,58.70
2023-02-06T05:59:17.002Z,58.70
2023-02-06T06:01:45.136Z,58.70
2023-02-06T06:04:13.308Z,58.70
2023-02-06T06:06:42.945Z,58.70
2023-02-06T06:09:11.112Z,58.70
2023-02-06T06:11:39.497Z,58.70
2023-02-06T06:14:08.007Z,58.70
2023-02-06T06:16:36.131Z,58.70
2023-02-06T06:19:04.818Z,58.60
2023-02-06T06:21:33.964Z,58.60
2023-02-06T06:24:03.687Z,58.60
2023-02-06T06:26:32.319Z,58.60
2023-02-06T06:29:00.635Z,58.60
2023-02-06T06:31:28.992Z,58.60
2023-02-06T06:33:57.137Z,58.60
2023-02-06T06:36:25.297Z,58.60
2023-02-06T06:38:53.413Z,58.60
2023-02-06T06:41:22.954Z,58.60
2023-02-06T06:43:51.653Z,58.60
2023-02-06T06:46:20.061Z,58.50
2023-02-06T06:48:48.295Z,58.60
2023-02-06T06:51:16.432Z,58.60
2023-02-06T06:53:44.568Z,58.60
2023-02-06T06:56:14.526Z,58.60
2023-02-06T06:58:44.119Z,58.60
2023-02-06T07:01:12.410Z,58.60
2023-02-06T07:03:44.130Z,58.60
2023-02-06T07:06:12.575Z,58.60
2023-02-06T07:08:42.035Z,58.60
2023-02-06T07:11:10.614Z,58.50
2023-02-06T07:13:39.125Z,58.60
2023-02-06T07:16:09.546Z,58.50
2023-02-06T07:18:38.543Z,58.50
2023-02-06T07:21:08.702Z,58.50
2023-02-06T07:23:38.338Z,58.50
2023-02-06T07:26:07.234Z,58.50
2023-02-06T07:28:35.701Z,58.60
2023-02-06T07:31:04.509Z,58.60
2023-02-06T07:33:35.160Z,58.60
2023-02-06T07:36:04.122Z,58.60
2023-02-06T07:38:32.716Z,58.60
2023-02-06T07:41:03.185Z,58.60
2023-02-06T07:43:31.565Z,58.60
2023-02-06T07:46:01.894Z,58.60
2023-02-06T07:48:30.316Z,58.70
2023-02-06T07:51:06.007Z,58.70
2023-02-06T07:53:34.945Z,58.60
2023-02-06T07:56:03.712Z,58.60
2023-02-06T07:58:31.807Z,58.50
2023-02-06T08:01:04.894Z,58.40
2023-02-06T08:03:33.281Z,58.40
2023-02-06T08:06:07.942Z,58.40
2023-02-06T08:08:36.082Z,58.40
2023-02-06T08:11:07.171Z,58.40
2023-02-06T08:13:35.422Z,58.50
2023-02-06T08:16:06.161Z,58.50
2023-02-06T08:18:34.473Z,58.50
2023-02-06T08:21:05.290Z,58.50
2023-02-06T08:23:33.859Z,58.50
2023-02-06T08:26:06.378Z,58.50
2023-02-06T08:28:36.062Z,58.50
2023-02-06T08:31:10.356Z,58.50
2023-02-06T08:33:38.713Z,58.50
2023-02-06T08:36:10.206Z,58.50
2023-02-06T08:38:38.659Z,58.50
2023-02-06T08:41:14.858Z,58.50
2023-02-06T08:43:43.025Z,58.60
2023-02-06T08:46:11.207Z,58.70
2023-02-06T08:48:39.393Z,58.90
2023-02-06T08:51:10.563Z,59.00
2023-02-06T08:53:38.545Z,59.10
2023-02-06T08:56:09.755Z,59.10
2023-02-06T08:58:39.077Z,59.10
2023-02-06T09:01:08.431Z,59.10
2023-02-06T09:03:37.104Z,59.20
2023-02-06T09:06:10.324Z,59.20
2023-02-06T09:08:40.781Z,59.30
2023-02-06T09:11:09.788Z,59.30
2023-02-06T09:13:38.396Z,59.30
2023-02-06T09:16:07.803Z,60.00
2023-02-06T09:18:36.226Z,59.40
2023-02-06T09:21:07.375Z,59.30
2023-02-06T09:23:35.958Z,59.10
2023-02-06T09:26:06.082Z,59.10
2023-02-06T09:28:34.823Z,59.20
2023-02-06T09:31:03.052Z,59.20
2023-02-06T09:33:31.197Z,59.30
2023-02-06T09:36:07.270Z,59.30
2023-02-06T09:38:36.254Z,59.30
2023-02-06T09:41:14.139Z,59.40
2023-02-06T09:43:52.814Z,59.40
2023-02-06T09:46:27.017Z,59.50
2023-02-06T09:48:58.300Z,59.40
2023-02-06T09:51:35.452Z,59.50
2023-02-06T09:54:10.141Z,59.50
2023-02-06T09:56:48.074Z,59.50
2023-02-06T09:59:24.541Z,59.60
2023-02-06T10:02:03.478Z,59.60
2023-02-06T10:04:41.457Z,59.60
2023-02-06T10:07:30.085Z,59.70
2023-02-06T10:10:03.296Z,59.70
2023-02-06T10:12:38.797Z,59.70
2023-02-06T10:15:14.950Z,59.70
2023-02-06T10:17:49.999Z,59.70
2023-02-06T10:20:23.083Z,59.80
2023-02-06T10:23:04.850Z,59.70
2023-02-06T10:25:37.176Z,59.80
2023-02-06T10:28:22.606Z,59.80
2023-02-06T10:31:05.577Z,59.80
2023-02-06T10:33:43.382Z,59.90
2023-02-06T10:36:26.498Z,59.80
2023-02-06T10:39:23.340Z,59.80
2023-02-06T10:42:00.983Z,59.80
2023-02-06T10:44:35.520Z,59.80
2023-02-06T10:47:05.810Z,59.80
2023-02-06T10:49:39.458Z,59.80
2023-02-06T10:52:17.517Z,59.80
2023-02-06T10:54:52.762Z,59.80
2023-02-06T10:57:24.986Z,59.80
2023-02-06T10:59:59.398Z,60.40
2023-02-06T11:02:35.236Z,59.80
2023-02-06T11:05:10.301Z,59.90
2023-02-06T11:07:43.252Z,59.90
2023-02-06T11:10:15.853Z,59.90
2023-02-06T11:12:48.767Z,59.90
2023-02-06T11:15:26.641Z,59.90
2023-02-06T11:17:55.625Z,60.00
2023-02-06T11:20:28.333Z,60.00
2023-02-06T11:22:56.564Z,60.00
2023-02-06T11:25:31.205Z,60.00
2023-02-06T11:28:01.707Z,60.00
2023-02-06T11:30:37.243Z,59.90
2023-02-06T11:33:08.375Z,59.90
2023-02-06T11:35:40.198Z,59.90
2023-02-06T11:38:19.957Z,60.00
2023-02-06T11:40:56.857Z,60.00
2023-02-06T11:43:26.881Z,59.90
2023-02-06T11:46:13.796Z,59.90
2023-02-06T11:48:43.718Z,59.90
2023-02-06T11:51:13.909Z,59.90
2023-02-06T11:53:56.867Z,59.80
2023-02-06T11:56:25.500Z,59.80
2023-02-06T11:59:17.905Z,59.90
2023-02-06T12:01:49.164Z,59.90
2023-02-06T12:04:24.000Z,59.90
2023-02-06T12:06:56.562Z,59.80
2023-02-06T12:09:24.730Z,59.90
2023-02-06T12:11:58.095Z,59.90
2023-02-06T12:14:34.109Z,60.00
2023-02-06T12:17:07.038Z,60.00
2023-02-06T12:19:49.778Z,60.50
2023-02-06T12:22:21.974Z,60.80
2023-02-06T12:24:52.838Z,60.90
2023-02-06T12:27:25.962Z,60.70
2023-02-06T12:30:01.732Z,60.50
2023-02-06T12:32:38.010Z,60.30
2023-02-06T12:35:16.854Z,60.20
2023-02-06T12:37:50.546Z,60.20
2023-02-06T12:40:31.764Z,60.00
2023-02-06T12:43:04.083Z,59.90
2023-02-06T12:45:42.176Z,59.90
2023-02-06T12:48:18.061Z,59.80
2023-02-06T12:51:00.206Z,59.80
2023-02-06T12:53:31.919Z,59.70
2023-02-06T12:56:04.903Z,59.60
2023-02-06T12:58:51.617Z,59.50
2023-02-06T13:01:35.702Z,59.40
2023-02-06T13:04:07.864Z,59.30
2023-02-06T13:06:45.025Z,59.30
2023-02-06T13:09:21.410Z,59.30
2023-02-06T13:11:49.809Z,59.30
2023-02-06T13:14:21.580Z,59.30
2023-02-06T13:16:56.856Z,59.20
2023-02-06T13:19:53.034Z,59.30
2023-02-06T13:22:41.262Z,59.20
2023-02-06T13:25:52.340Z,59.20
2023-02-06T13:29:09.543Z,59.10
2023-02-06T13:31:38.562Z,59.10
2023-02-06T13:34:16.879Z,59.00
2023-02-06T13:36:54.547Z,59.00
2023-02-06T13:39:34.707Z,58.90
2023-02-06T13:42:42.441Z,58.90
2023-02-06T13:45:18.284Z,58.90
2023-02-06T13:48:20.510Z,58.90
2023-02-06T13:51:07.340Z,58.90
2023-02-06T13:54:15.835Z,59.60
2023-02-06T13:56:53.948Z,59.00
2023-02-06T13:59:26.095Z,58.80
2023-02-06T14:01:55.174Z,58.80
2023-02-06T14:04:26.570Z,58.80
2023-02-06T14:07:23.210Z,58.80
2023-02-06T14:10:23.585Z,58.80
2023-02-06T14:13:05.204Z,58.70
2023-02-06T14:15:40.930Z,58.80
2023-02-06T14:18:21.952Z,58.80
2023-02-06T14:20:58.281Z,58.70
2023-02-06T14:23:38.964Z,58.70
2023-02-06T14:26:23.879Z,58.60
2023-02-06T14:29:02.297Z,58.60
2023-02-06T14:31:49.046Z,58.60
2023-02-06T14:34:38.957Z,58.60
2023-02-06T14:37:23.194Z,58.60
2023-02-06T14:39:53.473Z,58.70
2023-02-06T14:42:27.453Z,58.60
2023-02-06T14:44:58.868Z,58.60
2023-02-06T14:47:30.996Z,58.60
2023-02-06T14:50:00.791Z,58.60
2023-02-06T14:52:33.200Z,58.60
2023-02-06T14:55:01.913Z,58.60
2023-02-06T14:57:32.886Z,58.60
2023-02-06T15:00:03.159Z,58.60
2023-02-06T15:02:33.891Z,58.60
2023-02-06T15:05:03.403Z,58.50
2023-02-06T15:07:33.893Z,58.50
2023-02-06T15:10:06.884Z,58.50
2023-02-06T15:12:37.119Z,58.50
2023-02-06T15:15:17.847Z,58.50
2023-02-06T15:17:57.791Z,58.50
2023-02-06T15:20:28.850Z,58.50
2023-02-06T15:23:08.190Z,58.60
2023-02-06T15:26:00.552Z,58.70
2023-02-06T15:28:33.121Z,58.80
2023-02-06T15:31:02.475Z,58.80
2023-02-06T15:33:33.174Z,58.90
2023-02-06T15:36:03.738Z,58.90
2023-02-06T15:38:34.374Z,59.00
2023-02-06T15:41:05.575Z,59.10
2023-02-06T15:43:36.637Z,59.20
2023-02-06T15:46:05.788Z,59.20
2023-02-06T15:48:37.420Z,59.20
2023-02-06T15:51:21.126Z,59.30
2023-02-06T15:53:51.048Z,59.30
2023-02-06T15:56:24.627Z,59.40
2023-02-06T15:58:59.789Z,59.40
2023-02-06T16:01:30.480Z,59.50
2023-02-06T16:04:03.936Z,59.50
2023-02-06T16:06:32.636Z,59.60
2023-02-06T16:09:03.025Z,59.60
2023-02-06T16:11:50.661Z,59.60
2023-02-06T16:14:25.188Z,59.50
2023-02-06T16:17:05.905Z,59.60
2023-02-06T16:19:46.653Z,59.60
2023-02-06T16:22:19.908Z,59.60
2023-02-06T16:24:48.968Z,59.60
2023-02-06T16:27:20.660Z,59.60
2023-02-06T16:29:53.871Z,59.60
2023-02-06T16:32:25.624Z,59.60
2023-02-06T16:34:54.406Z,59.60
2023-02-06T16:37:24.648Z,59.60
2023-02-06T16:39:53.525Z,59.70
2023-02-06T16:42:24.039Z,59.70
2023-02-06T16:44:59.490Z,59.70
2023-02-06T16:47:27.825Z,59.70
2023-02-06T16:49:56.017Z,59.70
2023-02-06T16:52:26.772Z,59.70
2023-02-06T16:54:57.806Z,59.70
2023-02-06T16:57:29.242Z,59.70
2023-02-06T16:59:59.068Z,59.60
2023-02-06T17:02:29.100Z,59.50
2023-02-06T17:04:57.341Z,59.40
2023-02-06T17:07:28.044Z,59.30
2023-02-06T17:09:57.903Z,59.50
2023-02-06T17:12:26.519Z,59.00
2023-02-06T17:14:55.671Z,58.80
2023-02-06T17:17:25.420Z,58.80
2023-02-06T17:19:54.495Z,58.80
2023-02-06T17:22:22.827Z,58.90
2023-02-06T17:24:51.103Z,58.90
2023-02-06T17:27:20.936Z,58.90
2023-02-06T17:29:49.778Z,58.80
2023-02-06T17:32:21.995Z,58.80
2023-02-06T17:34:54.256Z,58.80
2023-02-06T17:37:22.746Z,58.80
2023-02-06T17:39:52.572Z,58.80
2023-02-06T17:42:22.027Z,58.80
2023-02-06T17:44:50.964Z,58.80
2023-02-06T17:47:19.113Z,58.70
2023-02-06T17:49:47.891Z,58.70
2023-02-06T17:52:17.693Z,58.60
2023-02-06T17:54:46.335Z,58.60
2023-02-06T17:57:14.815Z,58.70
2023-02-06T17:59:43.182Z,58.70
2023-02-06T18:02:13.821Z,58.60
2023-02-06T18:04:42.231Z,58.60
2023-02-06T18:07:10.451Z,58.60
2023-02-06T18:09:42.085Z,58.60
2023-02-06T18:12:11.032Z,58.50
2023-02-06T18:14:39.928Z,58.50
2023-02-06T18:17:09.114Z,58.50
2023-02-06T18:19:42.194Z,58.50
2023-02-06T18:22:11.162Z,58.50
2023-02-06T18:24:40.796Z,58.50
2023-02-06T18:27:09.779Z,58.50
2023-02-06T18:29:49.304Z,58.50
2023-02-06T18:32:18.872Z,58.50
2023-02-06T18:34:47.365Z,58.50
2023-02-06T18:37:15.687Z,58.50
2023-02-06T18:39:45.236Z,59.10
2023-02-06T18:42:31.338Z,58.50
2023-02-06T18:44:59.549Z,58.60
2023-02-06T18:47:27.811Z,58.60
2023-02-06T18:49:55.987Z,58.70
2023-02-06T18:52:24.264Z,58.70
2023-02-06T18:54:53.797Z,58.70
2023-02-06T18:57:21.988Z,58.60
2023-02-06T18:59:50.200Z,58.70
2023-02-06T19:02:18.502Z,58.60
2023-02-06T19:04:46.740Z,58.60
2023-02-06T19:07:16.309Z,58.60
2023-02-06T19:09:44.662Z,58.60
2023-02-06T19:12:14.324Z,58.60
2023-02-06T19:14:42.517Z,58.60
2023-02-06T19:17:10.749Z,59.20
2023-02-06T19:19:38.892Z,58.60
2023-02-06T19:22:07.042Z,58.60
2023-02-06T19:24:35.211Z,58.60
2023-02-06T19:27:03.355Z,58.50
2023-02-06T19:29:36.253Z,58.50
2023-02-06T19:32:05.868Z,58.50
2023-02-06T19:34:36.341Z,58.50
2023-02-06T19:37:05.137Z,58.50
2023-02-06T19:39:34.420Z,58.50
2023-02-06T19:42:05.604Z,58.40
2023-02-06T19:44:36.339Z,58.50
2023-02-06T19:47:05.145Z,58.50
2023-02-06T19:49:33.688Z,58.40
2023-02-06T19:52:02.172Z,58.40
2023-02-06T19:54:30.524Z,58.40
2023-02-06T19:57:00.632Z,58.40
2023-02-06T19:59:30.851Z,58.40
2023-02-06T20:02:02.027Z,58.30
2023-02-06T20:04:32.847Z,58.40
2023-02-06T20:07:01.392Z,58.30
2023-02-06T20:09:30.648Z,58.30
2023-02-06T20:11:59.331Z,58.30
2023-02-06T20:14:28.054Z,58.30
2023-02-06T20:16:56.734Z,58.30
2023-02-06T20:19:28.283Z,58.30
2023-02-06T20:21:58.485Z,58.30
2023-02-06T20:24:30.210Z,58.30
2023-02-06T20:27:00.715Z,58.30
2023-02-06T20:29:31.472Z,58.30
2023-02-06T20:32:00.757Z,58.30
2023-02-06T20:34:31.184Z,58.20
2023-02-06T20:36:59.656Z,58.20
2023-02-06T20:39:28.782Z,58.20
2023-02-06T20:41:56.943Z,58.20
2023-02-06T20:44:25.269Z,58.20
2023-02-06T20:46:53.576Z,58.20
2023-02-06T20:49:23.875Z,58.20
2023-02-06T20:51:53.932Z,58.20
2023-02-06T20:54:23.332Z,58.10
2023-02-06T20:56:52.017Z,58.10
2023-02-06T20:59:21.205Z,58.20
2023-02-06T21:01:49.854Z,58.10
2023-02-06T21:04:19.474Z,58.10
2023-02-06T21:06:49.982Z,58.10
2023-02-06T21:09:20.136Z,58.10
2023-02-06T21:11:50.341Z,58.10
2023-02-06T21:14:19.541Z,58.10
2023-02-06T21:16:48.266Z,58.10
2023-02-06T21:19:20.164Z,58.10
2023-02-06T21:21:48.856Z,58.10
2023-02-06T21:24:18.014Z,58.10
2023-02-06T21:26:47.621Z,58.00
2023-02-06T21:29:17.046Z,58.00
2023-02-06T21:31:46.194Z,58.00
2023-02-06T21:34:18.018Z,58.00
2023-02-06T21:36:46.676Z,58.00
2023-02-06T21:39:18.039Z,58.00
2023-02-06T21:41:51.588Z,58.00
2023-02-06T21:44:19.855Z,58.00
2023-02-06T21:46:47.993Z,58.00
2023-02-06T21:49:16.335Z,57.90
2023-02-06T21:51:44.814Z,57.90
2023-02-06T21:54:12.985Z,57.90
2023-02-06T21:56:41.180Z,57.90
2023-02-06T21:59:12.601Z,57.90
2023-02-06T22:01:41.462Z,57.90
2023-02-06T22:04:11.097Z,57.90
2023-02-06T22:06:39.652Z,57.90
2023-02-06T22:09:09.910Z,57.90
2023-02-06T22:11:40.049Z,57.90
2023-02-06T22:14:12.008Z,57.90
2023-02-06T22:16:40.523Z,57.90
2023-02-06T22:19:09.297Z,57.90
2023-02-06T22:21:37.529Z,57.80
2023-02-06T22:24:07.398Z,57.90
2023-02-06T22:26:38.769Z,57.90
2023-02-06T22:29:08.279Z,57.80
2023-02-06T22:31:40.295Z,57.80
2023-02-06T22:34:11.924Z,57.80
2023-02-06T22:36:40.401Z,58.40
2023-02-06T22:39:12.493Z,57.80
2023-02-06T22:41:41.932Z,57.80
2023-02-06T22:44:11.622Z,57.80
2023-02-06T22:46:41.337Z,57.80
2023-02-06T22:49:10.788Z,57.80
2023-02-06T22:51:40.961Z,57.80
2023-02-06T22:54:10.456Z,57.80
2023-02-06T22:56:41.127Z,57.80
2023-02-06T22:59:11.662Z,57.80
2023-02-06T23:01:43.006Z,57.80
2023-02-06T23:04:16.220Z,57.70
2023-02-06T23:06:44.794Z,57.70
2023-02-06T23:09:15.789Z,57.80
2023-02-06T23:11:44.530Z,57.70
2023-02-06T23:14:14.841Z,57.70
2023-02-06T23:16:45.344Z,57.70
2023-02-06T23:19:15.255Z,57.70
2023-02-06T23:21:44.500Z,57.70
2023-02-06T23:24:13.590Z,57.70
2023-02-06T23:26:43.474Z,57.70
2023-02-06T23:29:15.709Z,57.70
2023-02-06T23:31:45.807Z,57.70
2023-02-06T23:34:14.640Z,57.70
2023-02-06T23:36:42.784Z,57.70
2023-02-06T23:39:11.998Z,57.70
2023-02-06T23:41:40.284Z,57.60
2023-02-06T23:44:09.753Z,57.60
2023-02-06T23:46:40.156Z,57.70
2023-02-06T23:49:09.770Z,57.60
2023-02-06T23:51:38.973Z,57.60
2023-02-06T23:54:08.206Z,57.70
2023-02-06T23:56:36.985Z,57.60
2023-02-06T23:59:06.750Z,57.60
